首页
METAR-TAF:

METAR-TAF

机场 :

Clyde, 努那武特, 加拿大

纬度: 70-29N, 经度: 068-31W, 海拔: 25米

当前天气观测

该预报发布于48分钟前的20:08 UTC
风速5节,风向北转西北
温度 -16°C
湿度 92%
气压 1003 hPa
能見度: 24.1公里
多云层高于13000英尺
小雪

METAR: CYCY 132008Z 33005KT 15SM -SN BKN130 M16/M17 A2963 RMK AC6 SLP037

时间: 15:56 (20:56 UTC)

预报

该预报发布于2小时和18分钟前的18:38 UTC
预报有效从13日的 19点(UTC)到 14日的 07点(UTC)
风速7节,风向西北
能見度: 10公里
散云层高于5000英尺
多云层高于10000英尺
短暂存在
从 13日的 19点(UTC)到 14日的 01点(UTC)
能見度: 10公里
多云层高于5000英尺
冰针
从 14日的 0100点(UTC)
风速6节,风向北转西北
能見度: 10公里
散云层高于2500英尺
多云层高于22000英尺
冰针
短暂存在
从 14日的 01点(UTC)到 14日的 07点(UTC)
能見度: 8.0公里
冰针

TAF: CYCY 131838Z 1319/1407 32007KT P6SM SCT050 BKN100 TEMPO 1319/1401 P6SM IC BKN050 FM140100 33006KT P6SM IC SCT025 BKN220 TEMPO 1401/1407 5SM IC RMK NXT FCST BY 140100Z

超过4000个机场的气象观测和天气预报(METAR&TAF报告)。

可查询的气象台以黄色和红色小点在地图上表示。

将鼠标移到小点上方,可查看气象台名称。

然后点击查看天气观测和预报。

如需切换地图:点击带黑十字的绿色按钮放大地图;点击带横线的绿色按钮缩小地图;或者点击绿色箭头查看邻近地区的地图。


METAR-TAF: